Time;durP1;ratioP1;P1;durP2;ratioP2;P2;SDS_P1;SDS_P2;PMS_P1;PMS_P2;Temp;Humidity;BMP_temperature;BMP_pressure;BME280_temperature;BME280_humidity;BME280_pressure;Samples;Min_cycle;Max_cycle;Signal;HPM_P1;HPM_P2
2021/09/26 00:00:07;;;;;;;441.63;420.33;;;15.00;99.90;;;;;;4360178;33;20192;-65
2021/09/26 00:02:35;;;;;;;483.17;458.87;;;15.00;99.90;;;;;;4353044;33;20149;-66
2021/09/26 00:05:04;;;;;;;470.73;447.23;;;14.90;99.90;;;;;;4345599;33;20164;-67
2021/09/26 00:07:31;;;;;;;487.13;462.53;;;14.90;99.90;;;;;;4345935;33;20227;-65
2021/09/26 00:09:58;;;;;;;477.83;454.07;;;14.90;99.90;;;;;;4345996;33;20208;-66
2021/09/26 00:12:27;;;;;;;476.23;452.83;;;14.80;99.90;;;;;;4347800;33;20185;-66
2021/09/26 00:14:58;;;;;;;493.63;468.27;;;14.80;99.90;;;;;;4352037;33;20152;-65
2021/09/26 00:17:29;;;;;;;500.80;475.13;;;14.90;99.90;;;;;;4358746;33;20174;-66
2021/09/26 00:19:57;;;;;;;498.70;474.03;;;14.80;99.90;;;;;;4361814;33;20141;-67
2021/09/26 00:22:26;;;;;;;486.73;462.50;;;14.80;99.90;;;;;;4355726;33;20149;-67
2021/09/26 00:24:53;;;;;;;504.97;479.60;;;14.80;99.90;;;;;;4330359;33;20176;-67
2021/09/26 00:27:23;;;;;;;502.77;477.50;;;14.80;99.90;;;;;;4338998;33;20152;-66
2021/09/26 00:29:51;;;;;;;503.87;478.37;;;14.70;99.90;;;;;;4362701;33;20473;-65
2021/09/26 00:32:19;;;;;;;497.93;472.47;;;14.70;99.90;;;;;;4361613;33;20168;-66
2021/09/26 00:34:46;;;;;;;506.60;481.17;;;14.70;99.90;;;;;;4362985;32;20194;-66
2021/09/26 00:37:13;;;;;;;504.40;478.57;;;14.70;99.90;;;;;;4353683;33;20189;-66
2021/09/26 00:39:40;;;;;;;518.73;491.90;;;14.70;99.90;;;;;;4348034;33;20161;-66
2021/09/26 00:42:07;;;;;;;504.23;478.33;;;14.70;99.90;;;;;;4347478;33;20157;-65
2021/09/26 00:44:35;;;;;;;515.20;488.50;;;14.80;99.90;;;;;;4347650;33;20176;-66
2021/09/26 00:47:02;;;;;;;478.70;454.23;;;14.80;99.90;;;;;;4347007;33;20208;-66
2021/09/26 00:49:30;;;;;;;520.13;493.90;;;14.80;99.90;;;;;;4347850;33;20157;-66
2021/09/26 00:51:57;;;;;;;509.87;484.37;;;14.80;99.90;;;;;;4347161;33;20173;-65
2021/09/26 00:54:27;;;;;;;521.23;494.53;;;14.80;99.90;;;;;;4347810;33;20161;-67
2021/09/26 00:56:54;;;;;;;500.83;474.60;;;14.90;99.90;;;;;;4347482;33;20574;-65
2021/09/26 00:59:22;;;;;;;512.20;486.27;;;15.00;99.90;;;;;;4347395;33;20183;-66
2021/09/26 01:01:50;;;;;;;507.53;481.57;;;15.00;99.90;;;;;;4347180;33;20187;-65
2021/09/26 01:04:19;;;;;;;478.97;455.20;;;15.00;99.90;;;;;;4347543;33;20141;-65
2021/09/26 01:07:00;;;;;;;511.87;486.17;;;15.10;99.90;;;;;;4347182;33;20141;-66
2021/09/26 01:09:35;;;;;;;482.83;458.90;;;15.10;99.90;;;;;;4347962;33;20164;-65
2021/09/26 01:12:11;;;;;;;497.53;471.73;;;15.10;99.90;;;;;;4347829;33;20152;-67
2021/09/26 01:14:47;;;;;;;512.00;485.67;;;15.10;99.90;;;;;;4347548;33;20144;-66
2021/09/26 01:17:24;;;;;;;517.27;490.77;;;15.10;99.90;;;;;;4346918;33;20171;-65
2021/09/26 01:20:29;;;;;;;512.87;486.40;;;15.00;99.90;;;;;;4347475;33;20145;-65
2021/09/26 01:23:36;;;;;;;498.67;473.93;;;15.00;99.90;;;;;;4286262;33;20161;-66
2021/09/26 01:26:24;;;;;;;530.23;503.07;;;15.00;99.90;;;;;;4258401;33;20213;-65
2021/09/26 01:29:05;;;;;;;506.87;481.23;;;14.90;99.90;;;;;;4270997;33;20189;-66
2021/09/26 01:31:37;;;;;;;496.43;471.57;;;14.90;99.90;;;;;;4271667;33;20159;-65
2021/09/26 01:34:09;;;;;;;505.27;479.77;;;14.80;99.90;;;;;;4261886;33;20159;-66
2021/09/26 01:36:43;;;;;;;529.00;502.30;;;14.80;99.90;;;;;;4257642;33;20592;-67
2021/09/26 01:39:15;;;;;;;504.73;479.37;;;14.80;99.90;;;;;;4258351;33;20155;-65
2021/09/26 01:41:49;;;;;;;512.77;486.30;;;14.70;99.90;;;;;;4260724;33;20702;-65
2021/09/26 01:44:19;;;;;;;522.73;495.67;;;14.70;99.90;;;;;;4258457;33;20552;-65
2021/09/26 01:46:51;;;;;;;523.23;496.60;;;14.60;99.90;;;;;;4258102;33;20197;-65
2021/09/26 01:49:25;;;;;;;548.93;520.60;;;14.60;99.90;;;;;;4258655;33;20167;-65
2021/09/26 01:51:53;;;;;;;538.13;510.27;;;14.50;99.90;;;;;;4258413;33;20610;-65
2021/09/26 01:54:23;;;;;;;536.50;508.63;;;14.50;99.90;;;;;;4256788;33;20186;-65
2021/09/26 01:56:51;;;;;;;553.57;523.80;;;14.40;99.90;;;;;;4259013;33;20253;-65
2021/09/26 01:59:22;;;;;;;568.93;539.70;;;14.40;99.90;;;;;;4280843;33;20180;-65
2021/09/26 02:01:51;;;;;;;558.93;529.37;;;14.40;99.90;;;;;;4333153;33;20153;-66
2021/09/26 02:04:21;;;;;;;551.50;521.97;;;14.40;99.90;;;;;;4347097;33;20454;-65
2021/09/26 02:06:49;;;;;;;560.67;531.40;;;14.30;99.90;;;;;;4346052;33;20152;-65
2021/09/26 02:09:17;;;;;;;586.23;555.40;;;14.30;99.90;;;;;;4346505;33;20196;-68
2021/09/26 02:11:53;;;;;;;557.03;528.10;;;14.30;99.90;;;;;;4346558;33;20153;-66
2021/09/26 02:14:29;;;;;;;551.37;522.53;;;14.30;99.90;;;;;;4346650;33;20144;-66
2021/09/26 02:17:04;;;;;;;561.23;531.70;;;14.20;99.90;;;;;;4346973;33;20144;-67
2021/09/26 02:19:31;;;;;;;560.87;531.63;;;14.20;99.90;;;;;;4346540;33;20158;-66
2021/09/26 02:21:58;;;;;;;571.07;540.50;;;14.20;99.90;;;;;;4345867;33;20154;-67
2021/09/26 02:24:26;;;;;;;583.43;552.30;;;14.20;99.90;;;;;;4346513;33;20145;-68
2021/09/26 02:26:54;;;;;;;547.87;518.67;;;14.20;99.90;;;;;;4346007;33;20754;-67
2021/09/26 02:29:21;;;;;;;577.60;546.57;;;14.20;99.90;;;;;;4346538;33;20165;-66
2021/09/26 02:31:47;;;;;;;580.67;549.53;;;14.10;99.90;;;;;;4346430;33;20544;-66
2021/09/26 02:34:16;;;;;;;585.60;553.60;;;14.10;99.90;;;;;;4346300;33;20167;-66
2021/09/26 02:36:43;;;;;;;562.67;533.03;;;14.10;99.90;;;;;;4345787;33;20153;-65
2021/09/26 02:39:12;;;;;;;568.93;538.63;;;14.10;99.90;;;;;;4346083;33;20169;-65
2021/09/26 02:41:45;;;;;;;556.57;527.37;;;14.10;99.90;;;;;;4346140;33;20577;-65
2021/09/26 02:44:21;;;;;;;577.97;547.83;;;14.10;99.90;;;;;;4345964;33;20513;-65
2021/09/26 02:46:58;;;;;;;564.50;534.90;;;14.10;99.90;;;;;;4345421;33;20632;-65
2021/09/26 02:49:27;;;;;;;548.50;519.77;;;14.00;99.90;;;;;;4345200;33;20460;-65
2021/09/26 02:51:54;;;;;;;553.03;523.93;;;14.00;99.90;;;;;;4346153;33;20267;-64
2021/09/26 02:54:23;;;;;;;577.00;546.53;;;14.00;99.90;;;;;;4345865;33;20179;-65
2021/09/26 02:56:50;;;;;;;561.47;531.40;;;14.00;99.90;;;;;;4345745;33;20175;-65
2021/09/26 02:59:20;;;;;;;578.80;548.20;;;14.00;99.90;;;;;;4345734;33;20183;-66
2021/09/26 03:01:51;;;;;;;581.67;550.50;;;14.00;99.90;;;;;;4345760;33;20216;-66
2021/09/26 03:04:25;;;;;;;581.73;550.63;;;14.00;99.90;;;;;;4346234;33;20160;-66
2021/09/26 03:06:57;;;;;;;575.10;544.93;;;14.00;99.90;;;;;;4345334;33;20160;-67
2021/09/26 03:09:25;;;;;;;570.30;539.77;;;14.00;99.90;;;;;;4346508;33;20202;-66
2021/09/26 03:11:52;;;;;;;560.03;530.70;;;14.10;99.90;;;;;;4345358;33;20165;-65
2021/09/26 03:14:19;;;;;;;581.10;550.23;;;14.10;99.90;;;;;;4347649;33;20146;-66
2021/09/26 03:16:50;;;;;;;583.40;552.73;;;14.30;99.90;;;;;;4345569;33;20153;-66
2021/09/26 03:19:19;;;;;;;575.73;545.43;;;14.40;99.90;;;;;;4345771;33;20149;-67
2021/09/26 03:21:51;;;;;;;579.27;548.73;;;14.50;99.90;;;;;;4345223;33;20215;-67
2021/09/26 03:24:23;;;;;;;570.23;539.90;;;14.60;99.90;;;;;;4347143;33;20226;-65
2021/09/26 03:26:50;;;;;;;547.30;519.20;;;14.60;99.90;;;;;;4345281;33;20168;-66
2021/09/26 03:29:17;;;;;;;559.60;530.57;;;14.70;99.90;;;;;;4345701;33;20159;-67
2021/09/26 03:31:44;;;;;;;533.97;506.20;;;14.70;99.90;;;;;;4345244;33;20157;-65
2021/09/26 03:34:11;;;;;;;563.10;533.67;;;14.70;99.90;;;;;;4346645;33;20156;-65
2021/09/26 03:36:37;;;;;;;563.57;533.70;;;14.70;99.90;;;;;;4345718;33;20159;-65
2021/09/26 03:39:05;;;;;;;565.47;536.23;;;14.70;99.90;;;;;;4345650;33;20581;-65
2021/09/26 03:41:33;;;;;;;551.83;522.13;;;14.60;99.90;;;;;;4345656;33;20184;-66
2021/09/26 03:44:00;;;;;;;567.17;537.20;;;14.70;99.90;;;;;;4345666;33;20573;-66
2021/09/26 03:46:30;;;;;;;542.97;514.53;;;14.70;99.90;;;;;;4345789;33;20228;-66
2021/09/26 03:48:56;;;;;;;537.03;509.60;;;14.70;99.90;;;;;;4345495;33;20171;-66
2021/09/26 03:51:23;;;;;;;554.67;525.53;;;14.80;99.90;;;;;;4345318;33;20167;-65
2021/09/26 03:53:50;;;;;;;544.37;516.07;;;14.80;99.90;;;;;;4346216;33;20198;-66
2021/09/26 03:56:19;;;;;;;540.43;512.90;;;14.80;99.90;;;;;;4346046;33;20645;-67
2021/09/26 03:58:47;;;;;;;531.40;503.77;;;14.80;99.90;;;;;;4345306;33;20191;-64
2021/09/26 04:01:14;;;;;;;529.00;501.33;;;14.70;99.90;;;;;;4345635;33;20158;-64
2021/09/26 04:03:41;;;;;;;552.17;523.40;;;14.80;99.90;;;;;;4348541;33;20463;-67
2021/09/26 04:06:11;;;;;;;545.93;518.10;;;14.80;99.90;;;;;;4348794;33;20569;-63
2021/09/26 04:08:39;;;;;;;563.63;534.03;;;14.90;99.90;;;;;;4348805;33;20145;-65
2021/09/26 04:11:06;;;;;;;528.57;501.23;;;14.80;99.90;;;;;;4333734;33;20180;-64
2021/09/26 04:13:33;;;;;;;566.50;537.37;;;14.90;99.90;;;;;;4342318;33;20480;-64
2021/09/26 04:16:01;;;;;;;557.13;528.47;;;14.90;99.90;;;;;;4348782;33;20163;-65
2021/09/26 04:18:28;;;;;;;547.10;519.13;;;14.90;99.90;;;;;;4341182;33;20208;-66
2021/09/26 04:21:00;;;;;;;541.43;513.27;;;15.00;99.90;;;;;;4337967;32;20235;-66
2021/09/26 04:23:27;;;;;;;554.07;525.63;;;15.00;99.90;;;;;;4338130;33;20584;-66
2021/09/26 04:25:54;;;;;;;536.30;508.37;;;15.00;99.90;;;;;;4337743;32;20618;-67
2021/09/26 04:28:24;;;;;;;541.73;514.10;;;15.10;99.90;;;;;;4337175;32;20698;-66
2021/09/26 04:30:51;;;;;;;524.93;497.73;;;15.10;99.90;;;;;;4341610;33;20148;-64
2021/09/26 04:33:30;;;;;;;530.17;502.90;;;15.20;99.90;;;;;;4336010;32;20464;-65
2021/09/26 04:35:58;;;;;;;530.23;503.30;;;15.20;99.90;;;;;;4337063;33;20286;-65
2021/09/26 04:38:25;;;;;;;485.10;460.70;;;15.20;99.90;;;;;;4340648;32;20153;-64
2021/09/26 04:40:52;;;;;;;512.80;486.83;;;15.20;99.90;;;;;;4347091;32;20177;-65
2021/09/26 04:43:19;;;;;;;512.83;486.97;;;15.20;99.90;;;;;;4346439;33;20171;-64
2021/09/26 04:45:46;;;;;;;498.07;473.67;;;15.30;99.90;;;;;;4347764;33;20223;-65
2021/09/26 04:48:13;;;;;;;505.67;480.63;;;15.30;99.90;;;;;;4347430;33;20173;-65
2021/09/26 04:50:42;;;;;;;502.97;477.07;;;15.20;99.90;;;;;;4347924;33;20149;-65
2021/09/26 04:53:09;;;;;;;518.20;491.70;;;15.20;99.90;;;;;;4346867;33;20160;-64
2021/09/26 04:55:35;;;;;;;509.93;484.43;;;15.30;99.90;;;;;;4347915;33;20194;-65
2021/09/26 04:58:03;;;;;;;487.87;463.57;;;15.30;99.90;;;;;;4347340;33;20172;-65
2021/09/26 05:00:30;;;;;;;506.70;481.47;;;15.30;99.90;;;;;;4347702;33;20481;-65
2021/09/26 05:02:57;;;;;;;504.33;478.20;;;15.40;99.90;;;;;;4347448;33;20179;-65
2021/09/26 05:05:24;;;;;;;499.07;474.07;;;15.30;99.90;;;;;;4347746;33;20595;-66
2021/09/26 05:07:56;;;;;;;489.00;464.93;;;15.40;99.90;;;;;;4347276;33;20149;-65
2021/09/26 05:10:23;;;;;;;505.63;480.03;;;15.40;99.90;;;;;;4347704;33;20203;-65
2021/09/26 05:12:50;;;;;;;529.03;502.10;;;15.30;99.90;;;;;;4347485;33;20141;-65
2021/09/26 05:15:18;;;;;;;497.17;471.97;;;15.30;99.90;;;;;;4347528;33;20255;-66
2021/09/26 05:17:45;;;;;;;529.13;502.57;;;15.40;99.90;;;;;;4347207;33;20172;-65
2021/09/26 05:20:13;;;;;;;493.20;468.03;;;15.40;99.90;;;;;;4347593;33;20164;-65
2021/09/26 05:22:40;;;;;;;486.23;462.27;;;15.40;99.90;;;;;;4346660;33;20172;-65
2021/09/26 05:25:09;;;;;;;512.33;486.47;;;15.40;99.90;;;;;;4347109;33;20267;-65
2021/09/26 05:27:36;;;;;;;532.47;505.27;;;15.40;99.90;;;;;;4347875;33;20195;-65
2021/09/26 05:30:04;;;;;;;515.37;489.47;;;15.40;99.90;;;;;;4348751;33;20161;-65
2021/09/26 05:32:31;;;;;;;513.00;487.40;;;15.40;99.90;;;;;;4348178;33;20532;-65
2021/09/26 05:34:58;;;;;;;534.40;506.67;;;15.40;99.90;;;;;;4348664;33;20446;-65
2021/09/26 05:37:25;;;;;;;513.57;487.87;;;15.40;99.90;;;;;;4346873;33;20565;-65
2021/09/26 05:39:52;;;;;;;500.13;475.40;;;15.40;99.90;;;;;;4347170;33;20141;-66
2021/09/26 05:42:20;;;;;;;505.60;479.77;;;15.50;99.90;;;;;;4346813;33;20175;-64
2021/09/26 05:44:47;;;;;;;495.73;471.33;;;15.50;99.90;;;;;;4332427;33;20220;-65
2021/09/26 05:47:15;;;;;;;486.70;462.93;;;15.50;99.90;;;;;;4334162;33;20570;-65
2021/09/26 05:49:47;;;;;;;479.77;455.77;;;15.60;99.90;;;;;;4347162;33;20426;-66
2021/09/26 05:52:17;;;;;;;476.60;453.03;;;15.60;99.90;;;;;;4347556;33;20164;-66
2021/09/26 05:54:44;;;;;;;475.30;452.30;;;15.60;99.90;;;;;;4346503;33;20179;-65
2021/09/26 05:57:11;;;;;;;468.83;445.90;;;15.60;99.90;;;;;;4347975;33;20208;-65
2021/09/26 05:59:40;;;;;;;466.80;444.07;;;15.60;99.90;;;;;;4346266;33;20156;-64
2021/09/26 06:02:08;;;;;;;482.97;458.97;;;15.60;99.90;;;;;;4346084;33;20214;-65
2021/09/26 06:04:35;;;;;;;457.43;435.10;;;15.60;99.90;;;;;;4347923;33;20167;-66
2021/09/26 06:07:02;;;;;;;445.67;424.03;;;15.70;99.90;;;;;;4346129;33;20552;-66
2021/09/26 06:09:30;;;;;;;458.23;435.60;;;15.70;99.90;;;;;;4347004;33;20554;-65
2021/09/26 06:11:57;;;;;;;457.73;435.83;;;15.80;99.90;;;;;;4346367;33;20220;-65
2021/09/26 06:14:24;;;;;;;452.00;430.00;;;15.80;99.90;;;;;;4346903;33;20157;-66
2021/09/26 06:16:52;;;;;;;456.60;434.17;;;15.80;99.90;;;;;;4345916;33;20176;-66
2021/09/26 06:19:19;;;;;;;428.20;407.30;;;15.80;99.90;;;;;;4344358;33;20191;-66
2021/09/26 06:21:47;;;;;;;471.77;449.00;;;15.80;99.90;;;;;;4347761;33;20548;-66
2021/09/26 06:24:14;;;;;;;441.10;419.77;;;15.80;99.90;;;;;;4346043;33;20550;-65
2021/09/26 06:26:42;;;;;;;451.43;429.70;;;15.70;99.90;;;;;;4345841;33;20157;-66
2021/09/26 06:29:09;;;;;;;469.23;446.00;;;15.60;99.90;;;;;;4346987;33;20157;-65
2021/09/26 06:31:36;;;;;;;465.20;442.37;;;15.60;99.90;;;;;;4346157;33;20171;-64
2021/09/26 06:34:06;;;;;;;502.30;476.77;;;15.60;99.90;;;;;;4346650;33;20149;-65
2021/09/26 06:36:35;;;;;;;500.17;475.17;;;15.60;99.90;;;;;;4346171;33;20159;-65
2021/09/26 06:39:02;;;;;;;515.03;489.60;;;15.60;99.90;;;;;;4346493;33;20173;-65
2021/09/26 06:41:30;;;;;;;505.10;479.90;;;15.70;99.90;;;;;;4345783;33;20169;-65
2021/09/26 06:43:57;;;;;;;486.80;462.97;;;15.80;99.90;;;;;;4346331;33;20200;-65
2021/09/26 06:46:27;;;;;;;514.73;488.93;;;15.90;99.90;;;;;;4345667;33;20192;-65
2021/09/26 06:48:54;;;;;;;466.27;443.43;;;16.10;99.90;;;;;;4346776;33;20463;-65
2021/09/26 06:51:22;;;;;;;443.97;422.77;;;16.30;99.90;;;;;;4345691;33;20223;-64
2021/09/26 06:53:55;;;;;;;474.40;451.13;;;16.40;99.90;;;;;;4346176;33;20620;-65
2021/09/26 06:56:24;;;;;;;432.13;411.03;;;16.40;99.90;;;;;;4345552;33;20196;-65
2021/09/26 06:58:51;;;;;;;422.10;401.90;;;16.40;99.90;;;;;;4344214;33;20181;-64
2021/09/26 07:01:18;;;;;;;439.57;418.67;;;16.40;99.90;;;;;;4345410;33;20187;-65
2021/09/26 07:04:07;;;;;;;400.07;381.07;;;16.50;99.90;;;;;;4345779;33;20175;-65
2021/09/26 07:06:37;;;;;;;414.97;395.43;;;16.50;99.90;;;;;;4344498;33;20173;-65
2021/09/26 07:09:04;;;;;;;425.57;405.43;;;16.50;99.90;;;;;;4345373;33;20153;-65
2021/09/26 07:11:35;;;;;;;403.50;384.27;;;16.60;99.90;;;;;;4343010;33;20586;-64
2021/09/26 07:14:03;;;;;;;462.43;439.73;;;16.70;99.90;;;;;;4344326;33;20160;-65
2021/09/26 07:16:31;;;;;;;497.93;473.17;;;16.70;99.90;;;;;;4343122;33;20180;-66
2021/09/26 07:19:07;;;;;;;470.90;447.80;;;16.80;99.90;;;;;;4341840;33;20192;-66
2021/09/26 07:21:37;;;;;;;469.20;446.23;;;16.80;99.90;;;;;;4343813;33;20168;-65
2021/09/26 07:24:06;;;;;;;450.37;428.87;;;16.80;99.90;;;;;;4342333;33;20539;-65
2021/09/26 07:26:33;;;;;;;463.13;440.50;;;16.90;99.90;;;;;;4345231;33;20161;-65
2021/09/26 07:29:02;;;;;;;450.50;428.70;;;17.20;99.90;;;;;;4345620;33;20172;-66
2021/09/26 07:31:31;;;;;;;445.33;423.70;;;17.50;99.90;;;;;;4344770;33;20191;-66
2021/09/26 07:34:02;;;;;;;414.33;394.67;;;17.70;99.90;;;;;;4344371;33;20274;-65
2021/09/26 07:36:35;;;;;;;379.13;361.60;;;17.70;99.90;;;;;;4343693;33;20495;-66
2021/09/26 07:39:07;;;;;;;378.20;360.67;;;17.70;99.90;;;;;;4343139;33;20192;-66
2021/09/26 07:41:37;;;;;;;391.30;373.03;;;17.80;99.90;;;;;;4344499;33;20157;-65
2021/09/26 07:44:23;;;;;;;369.70;352.83;;;17.90;99.90;;;;;;4344051;33;20207;-66
2021/09/26 07:46:52;;;;;;;346.17;330.67;;;18.30;99.90;;;;;;4346834;33;20594;-68
2021/09/26 07:49:19;;;;;;;323.50;309.03;;;18.70;99.90;;;;;;4344168;33;20157;-65
2021/09/26 07:51:46;;;;;;;299.43;285.67;;;19.20;99.90;;;;;;4344453;33;20173;-68
2021/09/26 07:54:16;;;;;;;312.17;297.57;;;19.30;99.90;;;;;;4343400;33;20161;-66
2021/09/26 07:56:43;;;;;;;286.00;273.20;;;19.40;99.90;;;;;;4342712;33;20133;-67
2021/09/26 07:59:11;;;;;;;293.73;280.53;;;19.70;99.90;;;;;;4345492;33;20197;-67
2021/09/26 08:01:43;;;;;;;283.33;270.83;;;19.90;99.90;;;;;;4342589;33;20223;-66
2021/09/26 08:04:09;;;;;;;264.70;252.30;;;20.10;99.90;;;;;;4344216;33;20220;-66
2021/09/26 08:06:36;;;;;;;239.67;228.90;;;20.30;99.90;;;;;;4346205;33;20224;-66
2021/09/26 08:09:08;;;;;;;234.07;223.57;;;20.50;99.90;;;;;;4344179;33;20225;-66
2021/09/26 08:11:36;;;;;;;224.17;213.87;;;20.40;99.90;;;;;;4344119;33;20593;-66
2021/09/26 08:14:04;;;;;;;226.97;216.70;;;20.10;99.90;;;;;;4344713;33;20220;-65
2021/09/26 08:16:31;;;;;;;229.17;218.67;;;19.80;99.90;;;;;;4344806;33;20153;-66
2021/09/26 08:19:01;;;;;;;230.73;220.17;;;19.50;99.90;;;;;;4345049;33;20478;-66
2021/09/26 08:21:28;;;;;;;232.43;221.90;;;19.30;99.90;;;;;;4344572;33;20179;-66
2021/09/26 08:23:55;;;;;;;236.10;225.13;;;19.20;99.90;;;;;;4344840;33;20191;-66
2021/09/26 08:26:23;;;;;;;239.90;228.70;;;19.20;99.90;;;;;;4342700;33;20597;-66
2021/09/26 08:28:51;;;;;;;239.87;228.70;;;19.40;99.90;;;;;;4344198;33;20153;-66
2021/09/26 08:31:18;;;;;;;240.07;229.07;;;19.50;99.90;;;;;;4344806;33;20249;-66
2021/09/26 08:33:45;;;;;;;238.60;227.57;;;19.80;99.90;;;;;;4344751;33;20287;-67
2021/09/26 08:36:11;;;;;;;227.40;216.90;;;20.10;99.90;;;;;;4342797;33;20227;-66
2021/09/26 08:38:38;;;;;;;225.23;214.50;;;20.40;99.90;;;;;;4344313;33;20196;-66
2021/09/26 08:41:05;;;;;;;199.60;190.13;;;20.50;99.90;;;;;;4344333;33;20181;-66
2021/09/26 08:43:34;;;;;;;174.37;166.03;;;20.70;99.90;;;;;;4344049;33;20192;-66
2021/09/26 08:46:03;;;;;;;171.73;163.53;;;21.00;99.90;;;;;;4344241;33;20188;-68
2021/09/26 08:48:30;;;;;;;157.80;150.03;;;21.30;99.90;;;;;;4346354;33;20491;-66
2021/09/26 08:51:03;;;;;;;143.80;136.67;;;21.60;99.90;;;;;;4346373;33;20171;-67
2021/09/26 08:53:33;;;;;;;137.57;130.57;;;22.00;99.90;;;;;;4346192;33;20157;-66
2021/09/26 08:56:06;;;;;;;121.80;115.70;;;22.10;99.90;;;;;;4346447;33;20149;-67
2021/09/26 08:58:39;;;;;;;117.27;111.40;;;22.50;99.90;;;;;;4347222;33;20637;-67
2021/09/26 09:01:10;;;;;;;108.97;102.83;;;22.80;99.90;;;;;;4345404;33;20227;-67
2021/09/26 09:03:37;;;;;;;94.47;89.37;;;23.00;99.90;;;;;;4346154;33;20184;-66
2021/09/26 09:06:04;;;;;;;86.30;81.70;;;23.00;99.90;;;;;;4345636;33;20149;-66
2021/09/26 09:08:31;;;;;;;87.73;83.00;;;23.00;99.90;;;;;;4345645;33;20669;-68
2021/09/26 09:11:00;;;;;;;79.10;74.73;;;23.00;99.90;;;;;;4345822;33;20195;-67
2021/09/26 09:13:31;;;;;;;77.43;72.50;;;23.10;99.90;;;;;;4345215;33;20161;-68
2021/09/26 09:16:02;;;;;;;78.03;73.47;;;23.10;99.90;;;;;;4345797;33;20191;-67
2021/09/26 09:18:41;;;;;;;67.30;63.37;;;23.00;99.90;;;;;;4345600;33;20632;-68
2021/09/26 09:21:20;;;;;;;72.00;67.60;;;23.10;99.90;;;;;;4345966;33;20200;-69
2021/09/26 09:23:49;;;;;;;66.37;61.97;;;23.20;99.90;;;;;;4345591;33;20171;-67
2021/09/26 09:26:16;;;;;;;67.00;62.73;;;23.30;99.90;;;;;;4346455;33;20568;-68
2021/09/26 09:28:43;;;;;;;61.83;58.27;;;23.50;99.90;;;;;;4344902;33;20196;-69
2021/09/26 09:31:11;;;;;;;64.27;60.37;;;23.60;99.90;;;;;;4345508;33;20176;-67
2021/09/26 09:33:43;;;;;;;57.60;54.00;;;23.80;99.90;;;;;;4344057;33;20219;-67
2021/09/26 09:36:19;;;;;;;55.27;51.90;;;24.00;99.90;;;;;;4341926;32;20615;-68
2021/09/26 09:38:47;;;;;;;53.00;49.35;;;24.00;99.90;;;;;;4345439;33;20219;-68
2021/09/26 09:41:15;;;;;;;52.50;49.08;;;23.90;99.90;;;;;;4342926;33;20172;-68
2021/09/26 09:43:49;;;;;;;54.97;51.05;;;23.60;99.90;;;;;;4346217;33;20580;-67
2021/09/26 09:46:29;;;;;;;51.37;48.08;;;23.60;99.90;;;;;;4348424;33;20589;-68
2021/09/26 09:49:13;;;;;;;57.20;53.07;;;23.50;99.90;;;;;;4346480;33;20153;-68
2021/09/26 09:51:40;;;;;;;53.33;49.95;;;23.60;99.90;;;;;;4346350;33;20153;-68
2021/09/26 09:54:08;;;;;;;56.70;52.60;;;23.40;99.90;;;;;;4348175;33;20161;-68
2021/09/26 09:56:41;;;;;;;51.53;48.17;;;23.00;99.90;;;;;;4347281;33;20157;-70
2021/09/26 09:59:08;;;;;;;69.77;64.20;;;22.90;99.90;;;;;;4345955;33;20180;-68
2021/09/26 10:01:37;;;;;;;58.53;54.43;;;22.90;99.90;;;;;;4346397;33;20180;-68
2021/09/26 10:04:07;;;;;;;53.53;50.03;;;22.70;99.90;;;;;;4347068;33;20179;-67
2021/09/26 10:06:38;;;;;;;60.03;55.60;;;22.70;99.90;;;;;;4343074;33;20569;-68
2021/09/26 10:09:22;;;;;;;56.65;52.70;;;22.80;99.90;;;;;;4342199;33;20165;-69
2021/09/26 10:11:51;;;;;;;58.43;54.43;;;22.90;99.90;;;;;;4351539;33;20572;-69
2021/09/26 10:14:19;;;;;;;52.10;48.60;;;22.90;99.90;;;;;;4351286;32;20220;-68
2021/09/26 10:16:50;;;;;;;51.40;48.10;;;22.90;99.90;;;;;;4329323;33;20591;-68
2021/09/26 10:19:21;;;;;;;47.70;44.50;;;23.00;99.90;;;;;;4339547;33;20239;-70
2021/09/26 10:21:51;;;;;;;55.03;51.33;;;23.00;99.90;;;;;;4338221;33;20152;-68
2021/09/26 10:24:20;;;;;;;54.17;50.75;;;23.10;99.90;;;;;;4341856;33;20165;-68
2021/09/26 10:26:47;;;;;;;52.43;48.93;;;23.10;99.90;;;;;;4348821;33;20507;-68
2021/09/26 10:29:16;;;;;;;53.60;50.10;;;23.10;99.90;;;;;;4351550;32;20161;-68
2021/09/26 10:31:48;;;;;;;53.40;49.80;;;23.20;99.90;;;;;;4349641;32;20469;-69
2021/09/26 10:34:15;;;;;;;52.43;48.77;;;23.20;99.90;;;;;;4342872;33;20672;-69
2021/09/26 10:36:44;;;;;;;50.17;46.57;;;23.30;99.90;;;;;;4343778;33;20145;-68
2021/09/26 10:39:15;;;;;;;46.08;42.97;;;23.40;99.90;;;;;;4345567;33;20156;-68
2021/09/26 10:42:07;;;;;;;45.58;42.03;;;23.30;99.90;;;;;;4344194;33;20208;-70
2021/09/26 10:44:39;;;;;;;46.20;42.83;;;23.40;99.90;;;;;;4345614;33;20153;-69
2021/09/26 10:47:17;;;;;;;49.70;46.10;;;23.60;99.90;;;;;;4353313;32;20597;-68
2021/09/26 10:49:47;;;;;;;45.55;42.55;;;23.70;99.90;;;;;;4345332;33;20176;-69
2021/09/26 10:52:31;;;;;;;46.00;42.78;;;23.80;99.90;;;;;;4345199;33;20616;-68
2021/09/26 10:55:31;;;;;;;43.47;40.25;;;23.70;99.90;;;;;;4360489;32;20166;-70
2021/09/26 10:58:20;;;;;;;38.53;35.83;;;23.50;99.90;;;;;;4341563;33;20589;-68
2021/09/26 11:00:56;;;;;;;42.42;39.35;;;23.60;99.90;;;;;;4281771;33;20184;-68
2021/09/26 11:03:34;;;;;;;41.85;38.95;;;23.80;99.90;;;;;;4283362;33;20197;-68
2021/09/26 11:06:28;;;;;;;44.92;41.35;;;23.90;99.90;;;;;;4282790;33;20232;-70
2021/09/26 11:08:57;;;;;;;39.17;36.03;;;23.70;99.90;;;;;;4280883;33;20270;-68
2021/09/26 11:11:52;;;;;;;42.15;38.97;;;23.80;99.90;;;;;;4279151;33;20598;-69
2021/09/26 11:14:20;;;;;;;40.50;37.40;;;24.00;99.90;;;;;;4249133;33;20300;-68
2021/09/26 11:16:56;;;;;;;40.17;36.92;;;24.00;99.90;;;;;;4246516;33;20317;-69
2021/09/26 11:19:24;;;;;;;36.88;34.08;;;23.90;99.90;;;;;;4249791;33;20147;-68
2021/09/26 11:22:04;;;;;;;37.38;34.47;;;23.90;99.90;;;;;;4247900;33;20340;-68
2021/09/26 11:24:59;;;;;;;36.60;33.58;;;23.80;99.90;;;;;;4251554;33;20178;-69
2021/09/26 11:27:36;;;;;;;34.78;32.15;;;23.80;99.90;;;;;;4257880;33;20229;-69
2021/09/26 11:30:16;;;;;;;33.30;30.90;;;23.70;99.90;;;;;;4258302;33;20178;-70
2021/09/26 11:32:44;;;;;;;35.33;32.45;;;23.80;99.90;;;;;;4257211;33;20174;-69
2021/09/26 11:35:29;;;;;;;33.83;31.37;;;23.70;99.90;;;;;;4256533;33;20210;-70
2021/09/26 11:38:01;;;;;;;35.20;32.50;;;23.80;99.90;;;;;;4278454;33;20153;-69
2021/09/26 11:41:04;;;;;;;33.13;30.73;;;23.80;99.90;;;;;;4314265;33;20184;-68
2021/09/26 11:43:36;;;;;;;33.38;30.98;;;23.80;99.90;;;;;;4299323;33;20656;-70
2021/09/26 11:46:16;;;;;;;30.15;28.05;;;23.90;99.90;;;;;;4302596;33;20153;-69
2021/09/26 11:49:10;;;;;;;32.90;30.50;;;23.90;99.90;;;;;;4299268;33;20193;-68
2021/09/26 11:51:37;;;;;;;30.92;28.73;;;23.90;99.90;;;;;;4316539;33;20145;-69
2021/09/26 11:54:06;;;;;;;31.85;29.45;;;24.00;99.90;;;;;;4328939;33;20590;-70
2021/09/26 11:56:35;;;;;;;32.33;29.95;;;24.10;99.90;;;;;;4325515;33;20208;-69
2021/09/26 11:59:06;;;;;;;31.58;29.17;;;24.10;99.90;;;;;;4334737;33;20604;-69
2021/09/26 12:01:37;;;;;;;33.08;30.27;;;24.00;99.90;;;;;;4345856;33;20481;-69
2021/09/26 12:04:09;;;;;;;30.62;28.38;;;24.00;99.90;;;;;;4346399;33;20462;-69
2021/09/26 12:06:36;;;;;;;27.10;25.20;;;24.00;99.90;;;;;;4344557;33;20635;-69
2021/09/26 12:09:04;;;;;;;29.98;27.87;;;23.90;99.90;;;;;;4345053;33;20160;-69
2021/09/26 12:11:31;;;;;;;25.17;23.55;;;23.90;99.90;;;;;;4346039;33;20283;-69
2021/09/26 12:13:59;;;;;;;27.17;25.20;;;24.00;99.90;;;;;;4344861;33;20604;-68
2021/09/26 12:16:27;;;;;;;25.05;23.25;;;24.00;99.90;;;;;;4345124;33;20192;-69
2021/09/26 12:18:56;;;;;;;25.95;24.15;;;23.90;99.90;;;;;;4341455;33;20145;-69
2021/09/26 12:21:27;;;;;;;27.77;25.75;;;24.00;99.90;;;;;;4341593;33;20475;-69
2021/09/26 12:23:58;;;;;;;25.20;23.42;;;24.20;99.90;;;;;;4346441;33;20188;-69
2021/09/26 12:26:33;;;;;;;25.08;23.27;;;24.30;99.90;;;;;;4348841;33;20153;-69
2021/09/26 12:29:13;;;;;;;25.33;23.52;;;24.20;99.90;;;;;;4347286;33;20528;-69